Huvudsida
METAR-TAF:

METAR-TAF

Flygplatser :

Bahrains internationella flygplats

Bahrain, Bahrain

latitud: 26-16N, longitud: 050-39E, höjd: 2 m

Aktuellt väderrapport

Denna rapport gjordes för 12 minuter sedan, klockan 01:30 UTC
Vind 5 kt från syd/sydost, varierande mellan ost/sydost och syd
Temperatur 18°C
Fuktighet 77%
Tryck 1015 hPa
Sikt 10 km eller mer
Inga moln under 1 500 m eller inga cumulonimbus

METAR: OBBI 190130Z 15005KT 120V180 CAVOK 18/14 Q1015 NOSIG

Tid: 04:42 (01:42 UTC)

Väderprognos

Denna rapport gjordes för 2 timmar och 42 minuter sedan, klockan 23:00 UTC
Prognos gäller från 19 kl. 00 UTC till 20 kl. 06 UTC
Vind 12 kt från syd/sydost
Sikt 10 km eller mer
Spridda moln på en höjd av 2000 ft
Blir
från 19 kl. 14 UTC till 19 kl. 16 UTC
Vind 16 kt från nord/nordväst

TAF: OBBI 182300Z 1900/2006 15012KT 9999 SCT020 BECMG 1914/1916 33016KT

Aktuella väderrapporter och prognoser från 4000 flygplatser (METAR- och TAF-rapporter).

De tillgängliga stationerna syns som gula och röda prickar på kartan.

För musen över prickarna för att se namnen på stationerna.

Klicka sedan för att få väderrapporter och prognoser.

För att ändra kartan: Klicka på de gröna knapparna med ett svart kors på för att zooma in; den gröna knappen med ett streck på för att zooma ut; eller på de gröna pilarna för angränsande kartor.


METAR-TAF: